Aviation Digital Data Service (ADDS)

Output produced by METARs form (0315 UTC 19 October 2021)
found at http://www.aviationweather.gov/metar/data/
 
METAR text: EDDS 190250Z VRB01KT CAVOK 05/04 Q1024
Conditions at: EDDS (STUTTGART/ECHTER, DE) observed 0250 UTC 19 October 2021
Temperature: 5.0°C (41°F)
Dewpoint: 4.0°C (39°F) [RH = 93%]
Pressure (altimeter): 30.24 inches Hg (1024.0 mb)
Winds: variable direction winds at 1 MPH (1 knots; 0.5 m/s)
Visibility: 6 or more miles (10+ km)
Ceiling: ceiling and visibility are OK
Clouds: unknown
Weather: no significant weather observed at this time

METAR text: EDDS 190220Z VRB01KT 9999 BCFG NSC 04/04 Q1024
Conditions at: EDDS (STUTTGART/ECHTER, DE) observed 0220 UTC 19 October 2021
Temperature: 4.0°C (39°F)
Dewpoint: 4.0°C (39°F) [RH = 100%]
Pressure (altimeter): 30.24 inches Hg (1024.0 mb)
Winds: variable direction winds at 1 MPH (1 knots; 0.5 m/s)
Visibility: 6 or more miles (10+ km)
Ceiling: at least 12,000 feet AGL
Clouds: sky clear below 12,000 feet AGL
Weather: BCFG  (patches of fog)

METAR text: EDDS 190150Z 07002KT 9999 BCFG NSC 04/03 Q1024
Conditions at: EDDS (STUTTGART/ECHTER, DE) observed 0150 UTC 19 October 2021
Temperature: 4.0°C (39°F)
Dewpoint: 3.0°C (37°F) [RH = 93%]
Pressure (altimeter): 30.24 inches Hg (1024.0 mb)
Winds: from the ENE (70 degrees) at 2 MPH (2 knots; 1.0 m/s)
Visibility: 6 or more miles (10+ km)
Ceiling: at least 12,000 feet AGL
Clouds: sky clear below 12,000 feet AGL
Weather: BCFG  (patches of fog)

METAR text: EDDS 190120Z AUTO 07003KT 050V110 //// R07/P2000N // ///////// 03/03 Q1024
Conditions at: EDDS (STUTTGART/ECHTER, DE) observed 0120 UTC 19 October 2021
Temperature: 3.0°C (37°F)
Dewpoint: 3.0°C (37°F) [RH = 100%]
Pressure (altimeter): 30.24 inches Hg (1024.0 mb)
Winds: from the ENE (70 degrees) at 3 MPH (3 knots; 1.5 m/s)
Visibility: 1.24 miles (2.00 km)
Ceiling: unknown
Clouds: missing
Weather: no significant weather observed at this time

METAR text: EDDS 190050Z 05001KT CAVOK 04/03 Q1025
Conditions at: EDDS (STUTTGART/ECHTER, DE) observed 0050 UTC 19 October 2021
Temperature: 4.0°C (39°F)
Dewpoint: 3.0°C (37°F) [RH = 93%]
Pressure (altimeter): 30.27 inches Hg (1025.0 mb)
Winds: from the NE (50 degrees) at 1 MPH (1 knots; 0.5 m/s)
Visibility: 6 or more miles (10+ km)
Ceiling: ceiling and visibility are OK
Clouds: unknown
Weather: no significant weather observed at this time

METAR text: EDDS 190020Z 32002KT CAVOK 04/03 Q1025
Conditions at: EDDS (STUTTGART/ECHTER, DE) observed 0020 UTC 19 October 2021
Temperature: 4.0°C (39°F)
Dewpoint: 3.0°C (37°F) [RH = 93%]
Pressure (altimeter): 30.27 inches Hg (1025.0 mb)
Winds: from the NW (320 degrees) at 2 MPH (2 knots; 1.0 m/s)
Visibility: 6 or more miles (10+ km)
Ceiling: ceiling and visibility are OK
Clouds: unknown
Weather: no significant weather observed at this time

METAR text: EDDS 182350Z 12002KT CAVOK 05/04 Q1024
Conditions at: EDDS (STUTTGART/ECHTER, DE) observed 2350 UTC 18 October 2021
Temperature: 5.0°C (41°F)
Dewpoint: 4.0°C (39°F) [RH = 93%]
Pressure (altimeter): 30.24 inches Hg (1024.0 mb)
Winds: from the ESE (120 degrees) at 2 MPH (2 knots; 1.0 m/s)
Visibility: 6 or more miles (10+ km)
Ceiling: ceiling and visibility are OK
Clouds: unknown
Weather: no significant weather observed at this time

METAR text: EDDS 182320Z VRB02KT CAVOK 05/05 Q1025
Conditions at: EDDS (STUTTGART/ECHTER, DE) observed 2320 UTC 18 October 2021
Temperature: 5.0°C (41°F)
Dewpoint: 5.0°C (41°F) [RH = 100%]
Pressure (altimeter): 30.27 inches Hg (1025.0 mb)
Winds: variable direction winds at 2 MPH (2 knots; 1.0 m/s)
Visibility: 6 or more miles (10+ km)
Ceiling: ceiling and visibility are OK
Clouds: unknown
Weather: no significant weather observed at this time

METAR text: EDDS 182250Z VRB03KT CAVOK 05/04 Q1025
Conditions at: EDDS (STUTTGART/ECHTER, DE) observed 2250 UTC 18 October 2021
Temperature: 5.0°C (41°F)
Dewpoint: 4.0°C (39°F) [RH = 93%]
Pressure (altimeter): 30.27 inches Hg (1025.0 mb)
Winds: variable direction winds at 3 MPH (3 knots; 1.5 m/s)
Visibility: 6 or more miles (10+ km)
Ceiling: ceiling and visibility are OK
Clouds: unknown
Weather: no significant weather observed at this time

METAR text: EDDS 182220Z VRB01KT CAVOK 06/06 Q1025
Conditions at: EDDS (STUTTGART/ECHTER, DE) observed 2220 UTC 18 October 2021
Temperature: 6.0°C (43°F)
Dewpoint: 6.0°C (43°F) [RH = 100%]
Pressure (altimeter): 30.27 inches Hg (1025.0 mb)
Winds: variable direction winds at 1 MPH (1 knots; 0.5 m/s)
Visibility: 6 or more miles (10+ km)
Ceiling: ceiling and visibility are OK
Clouds: unknown
Weather: no significant weather observed at this time

METAR text: EDDS 182150Z 06002KT CAVOK 06/06 Q1025
Conditions at: EDDS (STUTTGART/ECHTER, DE) observed 2150 UTC 18 October 2021
Temperature: 6.0°C (43°F)
Dewpoint: 6.0°C (43°F) [RH = 100%]
Pressure (altimeter): 30.27 inches Hg (1025.0 mb)
Winds: from the ENE (60 degrees) at 2 MPH (2 knots; 1.0 m/s)
Visibility: 6 or more miles (10+ km)
Ceiling: ceiling and visibility are OK
Clouds: unknown
Weather: no significant weather observed at this time

METAR text: EDDS 182120Z 16001KT CAVOK 07/06 Q1025
Conditions at: EDDS (STUTTGART/ECHTER, DE) observed 2120 UTC 18 October 2021
Temperature: 7.0°C (45°F)
Dewpoint: 6.0°C (43°F) [RH = 93%]
Pressure (altimeter): 30.27 inches Hg (1025.0 mb)
Winds: from the SSE (160 degrees) at 1 MPH (1 knots; 0.5 m/s)
Visibility: 6 or more miles (10+ km)
Ceiling: ceiling and visibility are OK
Clouds: unknown
Weather: no significant weather observed at this time

METAR text: EDDS 182050Z VRB02KT CAVOK 07/06 Q1025
Conditions at: EDDS (STUTTGART/ECHTER, DE) observed 2050 UTC 18 October 2021
Temperature: 7.0°C (45°F)
Dewpoint: 6.0°C (43°F) [RH = 93%]
Pressure (altimeter): 30.27 inches Hg (1025.0 mb)
Winds: variable direction winds at 2 MPH (2 knots; 1.0 m/s)
Visibility: 6 or more miles (10+ km)
Ceiling: ceiling and visibility are OK
Clouds: unknown
Weather: no significant weather observed at this time

METAR text: EDDS 182020Z VRB02KT CAVOK 07/06 Q1025
Conditions at: EDDS (STUTTGART/ECHTER, DE) observed 2020 UTC 18 October 2021
Temperature: 7.0°C (45°F)
Dewpoint: 6.0°C (43°F) [RH = 93%]
Pressure (altimeter): 30.27 inches Hg (1025.0 mb)
Winds: variable direction winds at 2 MPH (2 knots; 1.0 m/s)
Visibility: 6 or more miles (10+ km)
Ceiling: ceiling and visibility are OK
Clouds: unknown
Weather: no significant weather observed at this time

METAR text: EDDS 181950Z 21003KT 130V260 CAVOK 08/06 Q1025 NOSIG
Conditions at: EDDS (STUTTGART/ECHTER, DE) observed 1950 UTC 18 October 2021
Temperature: 8.0°C (46°F)
Dewpoint: 6.0°C (43°F) [RH = 87%]
Pressure (altimeter): 30.27 inches Hg (1025.0 mb)
Winds: from the SSW (210 degrees) at 3 MPH (3 knots; 1.5 m/s)
Visibility: 6 or more miles (10+ km)
Ceiling: ceiling and visibility are OK
Clouds: unknown
Weather: no significant weather observed at this time

METAR text: EDDS 181920Z VRB01KT CAVOK 08/06 Q1025 NOSIG
Conditions at: EDDS (STUTTGART/ECHTER, DE) observed 1920 UTC 18 October 2021
Temperature: 8.0°C (46°F)
Dewpoint: 6.0°C (43°F) [RH = 87%]
Pressure (altimeter): 30.27 inches Hg (1025.0 mb)
Winds: variable direction winds at 1 MPH (1 knots; 0.5 m/s)
Visibility: 6 or more miles (10+ km)
Ceiling: ceiling and visibility are OK
Clouds: unknown
Weather: no significant weather observed at this time

METAR text: EDDS 181850Z 32005KT CAVOK 09/06 Q1025 NOSIG
Conditions at: EDDS (STUTTGART/ECHTER, DE) observed 1850 UTC 18 October 2021
Temperature: 9.0°C (48°F)
Dewpoint: 6.0°C (43°F) [RH = 81%]
Pressure (altimeter): 30.27 inches Hg (1025.0 mb)
Winds: from the NW (320 degrees) at 6 MPH (5 knots; 2.6 m/s)
Visibility: 6 or more miles (10+ km)
Ceiling: ceiling and visibility are OK
Clouds: unknown
Weather: no significant weather observed at this time

METAR text: EDDS 181820Z 33005KT CAVOK 08/06 Q1024 NOSIG
Conditions at: EDDS (STUTTGART/ECHTER, DE) observed 1820 UTC 18 October 2021
Temperature: 8.0°C (46°F)
Dewpoint: 6.0°C (43°F) [RH = 87%]
Pressure (altimeter): 30.24 inches Hg (1024.0 mb)
Winds: from the NNW (330 degrees) at 6 MPH (5 knots; 2.6 m/s)
Visibility: 6 or more miles (10+ km)
Ceiling: ceiling and visibility are OK
Clouds: unknown
Weather: no significant weather observed at this time

METAR text: EDDS 181750Z 31003KT 270V330 CAVOK 08/05 Q1024 NOSIG
Conditions at: EDDS (STUTTGART/ECHTER, DE) observed 1750 UTC 18 October 2021
Temperature: 8.0°C (46°F)
Dewpoint: 5.0°C (41°F) [RH = 81%]
Pressure (altimeter): 30.24 inches Hg (1024.0 mb)
Winds: from the NW (310 degrees) at 3 MPH (3 knots; 1.5 m/s)
Visibility: 6 or more miles (10+ km)
Ceiling: ceiling and visibility are OK
Clouds: unknown
Weather: no significant weather observed at this time

METAR text: EDDS 181720Z 30002KT CAVOK 09/06 Q1024 NOSIG
Conditions at: EDDS (STUTTGART/ECHTER, DE) observed 1720 UTC 18 October 2021
Temperature: 9.0°C (48°F)
Dewpoint: 6.0°C (43°F) [RH = 81%]
Pressure (altimeter): 30.24 inches Hg (1024.0 mb)
Winds: from the WNW (300 degrees) at 2 MPH (2 knots; 1.0 m/s)
Visibility: 6 or more miles (10+ km)
Ceiling: ceiling and visibility are OK
Clouds: unknown
Weather: no significant weather observed at this time

METAR text: EDDS 181650Z 00000KT CAVOK 10/06 Q1024 NOSIG
Conditions at: EDDS (STUTTGART/ECHTER, DE) observed 1650 UTC 18 October 2021
Temperature: 10.0°C (50°F)
Dewpoint: 6.0°C (43°F) [RH = 76%]
Pressure (altimeter): 30.24 inches Hg (1024.0 mb)
Winds: calm
Visibility: 6 or more miles (10+ km)
Ceiling: ceiling and visibility are OK
Clouds: unknown
Weather: no significant weather observed at this time

METAR text: EDDS 181620Z VRB02KT CAVOK 11/07 Q1024 NOSIG
Conditions at: EDDS (STUTTGART/ECHTER, DE) observed 1620 UTC 18 October 2021
Temperature: 11.0°C (52°F)
Dewpoint: 7.0°C (45°F) [RH = 76%]
Pressure (altimeter): 30.24 inches Hg (1024.0 mb)
Winds: variable direction winds at 2 MPH (2 knots; 1.0 m/s)
Visibility: 6 or more miles (10+ km)
Ceiling: ceiling and visibility are OK
Clouds: unknown
Weather: no significant weather observed at this time

METAR text: EDDS 181550Z VRB02KT CAVOK 13/07 Q1024 NOSIG
Conditions at: EDDS (STUTTGART/ECHTER, DE) observed 1550 UTC 18 October 2021
Temperature: 13.0°C (55°F)
Dewpoint: 7.0°C (45°F) [RH = 67%]
Pressure (altimeter): 30.24 inches Hg (1024.0 mb)
Winds: variable direction winds at 2 MPH (2 knots; 1.0 m/s)
Visibility: 6 or more miles (10+ km)
Ceiling: ceiling and visibility are OK
Clouds: unknown
Weather: no significant weather observed at this time

METAR text: EDDS 181520Z 05004KT CAVOK 13/07 Q1024 NOSIG
Conditions at: EDDS (STUTTGART/ECHTER, DE) observed 1520 UTC 18 October 2021
Temperature: 13.0°C (55°F)
Dewpoint: 7.0°C (45°F) [RH = 67%]
Pressure (altimeter): 30.24 inches Hg (1024.0 mb)
Winds: from the NE (50 degrees) at 5 MPH (4 knots; 2.1 m/s)
Visibility: 6 or more miles (10+ km)
Ceiling: ceiling and visibility are OK
Clouds: unknown
Weather: no significant weather observed at this time

METAR text: EDDS 181450Z VRB02KT CAVOK 15/08 Q1025 NOSIG
Conditions at: EDDS (STUTTGART/ECHTER, DE) observed 1450 UTC 18 October 2021
Temperature: 15.0°C (59°F)
Dewpoint: 8.0°C (46°F) [RH = 63%]
Pressure (altimeter): 30.27 inches Hg (1025.0 mb)
Winds: variable direction winds at 2 MPH (2 knots; 1.0 m/s)
Visibility: 6 or more miles (10+ km)
Ceiling: ceiling and visibility are OK
Clouds: unknown
Weather: no significant weather observed at this time

METAR text: EDDS 181420Z VRB01KT CAVOK 15/08 Q1025 NOSIG
Conditions at: EDDS (STUTTGART/ECHTER, DE) observed 1420 UTC 18 October 2021
Temperature: 15.0°C (59°F)
Dewpoint: 8.0°C (46°F) [RH = 63%]
Pressure (altimeter): 30.27 inches Hg (1025.0 mb)
Winds: variable direction winds at 1 MPH (1 knots; 0.5 m/s)
Visibility: 6 or more miles (10+ km)
Ceiling: ceiling and visibility are OK
Clouds: unknown
Weather: no significant weather observed at this time

METAR text: EDDS 181350Z VRB01KT CAVOK 14/07 Q1024 NOSIG
Conditions at: EDDS (STUTTGART/ECHTER, DE) observed 1350 UTC 18 October 2021
Temperature: 14.0°C (57°F)
Dewpoint: 7.0°C (45°F) [RH = 63%]
Pressure (altimeter): 30.24 inches Hg (1024.0 mb)
Winds: variable direction winds at 1 MPH (1 knots; 0.5 m/s)
Visibility: 6 or more miles (10+ km)
Ceiling: ceiling and visibility are OK
Clouds: unknown
Weather: no significant weather observed at this time

METAR text: EDDS 181320Z VRB01KT CAVOK 14/07 Q1025 NOSIG
Conditions at: EDDS (STUTTGART/ECHTER, DE) observed 1320 UTC 18 October 2021
Temperature: 14.0°C (57°F)
Dewpoint: 7.0°C (45°F) [RH = 63%]
Pressure (altimeter): 30.27 inches Hg (1025.0 mb)
Winds: variable direction winds at 1 MPH (1 knots; 0.5 m/s)
Visibility: 6 or more miles (10+ km)
Ceiling: ceiling and visibility are OK
Clouds: unknown
Weather: no significant weather observed at this time

METAR text: EDDS 181250Z 12003KT 040V180 CAVOK 13/07 Q1024 NOSIG
Conditions at: EDDS (STUTTGART/ECHTER, DE) observed 1250 UTC 18 October 2021
Temperature: 13.0°C (55°F)
Dewpoint: 7.0°C (45°F) [RH = 67%]
Pressure (altimeter): 30.24 inches Hg (1024.0 mb)
Winds: from the ESE (120 degrees) at 3 MPH (3 knots; 1.5 m/s)
Visibility: 6 or more miles (10+ km)
Ceiling: ceiling and visibility are OK
Clouds: unknown
Weather: no significant weather observed at this time

METAR text: EDDS 181220Z VRB02KT CAVOK 13/07 Q1025 NOSIG
Conditions at: EDDS (STUTTGART/ECHTER, DE) observed 1220 UTC 18 October 2021
Temperature: 13.0°C (55°F)
Dewpoint: 7.0°C (45°F) [RH = 67%]
Pressure (altimeter): 30.27 inches Hg (1025.0 mb)
Winds: variable direction winds at 2 MPH (2 knots; 1.0 m/s)
Visibility: 6 or more miles (10+ km)
Ceiling: ceiling and visibility are OK
Clouds: unknown
Weather: no significant weather observed at this time

METAR text: EDDS 181150Z VRB02KT CAVOK 12/07 Q1025 NOSIG
Conditions at: EDDS (STUTTGART/ECHTER, DE) observed 1150 UTC 18 October 2021
Temperature: 12.0°C (54°F)
Dewpoint: 7.0°C (45°F) [RH = 71%]
Pressure (altimeter): 30.27 inches Hg (1025.0 mb)
Winds: variable direction winds at 2 MPH (2 knots; 1.0 m/s)
Visibility: 6 or more miles (10+ km)
Ceiling: ceiling and visibility are OK
Clouds: unknown
Weather: no significant weather observed at this time

METAR text: EDDS 181120Z VRB02KT 9999 SCT010 10/06 Q1026 NOSIG
Conditions at: EDDS (STUTTGART/ECHTER, DE) observed 1120 UTC 18 October 2021
Temperature: 10.0°C (50°F)
Dewpoint: 6.0°C (43°F) [RH = 76%]
Pressure (altimeter): 30.30 inches Hg (1026.0 mb)
Winds: variable direction winds at 2 MPH (2 knots; 1.0 m/s)
Visibility: 6 or more miles (10+ km)
Ceiling: at least 12,000 feet AGL
Clouds: scattered clouds at 1000 feet AGL
Weather: no significant weather observed at this time

METAR text: EDDS 181050Z VRB02KT 9999 BKN008 09/06 Q1026 BECMG SCT010
Conditions at: EDDS (STUTTGART/ECHTER, DE) observed 1050 UTC 18 October 2021
Temperature: 9.0°C (48°F)
Dewpoint: 6.0°C (43°F) [RH = 81%]
Pressure (altimeter): 30.30 inches Hg (1026.0 mb)
Winds: variable direction winds at 2 MPH (2 knots; 1.0 m/s)
Visibility: 6 or more miles (10+ km)
Ceiling: 800 feet AGL
Clouds: broken clouds at 800 feet AGL
Weather: no significant weather observed at this time

METAR text: EDDS 181020Z 10003KT 050V160 9999 BKN007 09/06 Q1026 BECMG SCT010
Conditions at: EDDS (STUTTGART/ECHTER, DE) observed 1020 UTC 18 October 2021
Temperature: 9.0°C (48°F)
Dewpoint: 6.0°C (43°F) [RH = 81%]
Pressure (altimeter): 30.30 inches Hg (1026.0 mb)
Winds: from the E (100 degrees) at 3 MPH (3 knots; 1.5 m/s)
Visibility: 6 or more miles (10+ km)
Ceiling: 700 feet AGL
Clouds: broken clouds at 700 feet AGL
Weather: no significant weather observed at this time

METAR text: EDDS 180950Z 10004KT 070V140 9999 OVC007 08/06 Q1026 BECMG SCT010
Conditions at: EDDS (STUTTGART/ECHTER, DE) observed 0950 UTC 18 October 2021
Temperature: 8.0°C (46°F)
Dewpoint: 6.0°C (43°F) [RH = 87%]
Pressure (altimeter): 30.30 inches Hg (1026.0 mb)
Winds: from the E (100 degrees) at 5 MPH (4 knots; 2.1 m/s)
Visibility: 6 or more miles (10+ km)
Ceiling: 700 feet AGL
Clouds: overcast cloud deck at 700 feet AGL
Weather: no significant weather observed at this time

METAR text: EDDS 180920Z 08003KT 050V110 9999 OVC007 08/06 Q1026 BECMG SCT010
Conditions at: EDDS (STUTTGART/ECHTER, DE) observed 0920 UTC 18 October 2021
Temperature: 8.0°C (46°F)
Dewpoint: 6.0°C (43°F) [RH = 87%]
Pressure (altimeter): 30.30 inches Hg (1026.0 mb)
Winds: from the E (80 degrees) at 3 MPH (3 knots; 1.5 m/s)
Visibility: 6 or more miles (10+ km)
Ceiling: 700 feet AGL
Clouds: overcast cloud deck at 700 feet AGL
Weather: no significant weather observed at this time

METAR text: EDDS 180850Z 10004KT 060V140 9000 FEW002 OVC007 08/06 Q1026 NOSIG
Conditions at: EDDS (STUTTGART/ECHTER, DE) observed 0850 UTC 18 October 2021
Temperature: 8.0°C (46°F)
Dewpoint: 6.0°C (43°F) [RH = 87%]
Pressure (altimeter): 30.30 inches Hg (1026.0 mb)
Winds: from the E (100 degrees) at 5 MPH (4 knots; 2.1 m/s)
Visibility: 6 miles ( 9 km)
Ceiling: 700 feet AGL
Clouds: few clouds at 200 feet AGL
overcast cloud deck at 700 feet AGL
Weather: no significant weather observed at this time

METAR text: EDDS 180820Z VRB02KT 9000 FEW002 OVC006 08/06 Q1026 NOSIG
Conditions at: EDDS (STUTTGART/ECHTER, DE) observed 0820 UTC 18 October 2021
Temperature: 8.0°C (46°F)
Dewpoint: 6.0°C (43°F) [RH = 87%]
Pressure (altimeter): 30.30 inches Hg (1026.0 mb)
Winds: variable direction winds at 2 MPH (2 knots; 1.0 m/s)
Visibility: 6 miles ( 9 km)
Ceiling: 600 feet AGL
Clouds: few clouds at 200 feet AGL
overcast cloud deck at 600 feet AGL
Weather: no significant weather observed at this time

METAR text: EDDS 180750Z 08003KT 050V110 8000 FEW002 BKN006 08/07 Q1026 NOSIG
Conditions at: EDDS (STUTTGART/ECHTER, DE) observed 0750 UTC 18 October 2021
Temperature: 8.0°C (46°F)
Dewpoint: 7.0°C (45°F) [RH = 93%]
Pressure (altimeter): 30.30 inches Hg (1026.0 mb)
Winds: from the E (80 degrees) at 3 MPH (3 knots; 1.5 m/s)
Visibility: 5 miles ( 8 km)
Ceiling: 600 feet AGL
Clouds: few clouds at 200 feet AGL
broken clouds at 600 feet AGL
Weather: no significant weather observed at this time

METAR text: EDDS 180720Z VRB02KT 4800 BCFG SCT001 SCT002 BKN007 07/07 Q1025 BECMG 7000
Conditions at: EDDS (STUTTGART/ECHTER, DE) observed 0720 UTC 18 October 2021
Temperature: 7.0°C (45°F)
Dewpoint: 7.0°C (45°F) [RH = 100%]
Pressure (altimeter): 30.27 inches Hg (1025.0 mb)
Winds: variable direction winds at 2 MPH (2 knots; 1.0 m/s)
Visibility: 2.98 miles (4.80 km)
Ceiling: 700 feet AGL
Clouds: scattered clouds at 100 feet AGL
scattered clouds at 200 feet AGL
broken clouds at 700 feet AGL
Weather: BCFG  (patches of fog)

METAR text: EDDS 180650Z VRB01KT 4500 1500E BCFG BKN001 BKN008 07/06 Q1025 BECMG 5000 BKN008
Conditions at: EDDS (STUTTGART/ECHTER, DE) observed 0650 UTC 18 October 2021
Temperature: 7.0°C (45°F)
Dewpoint: 6.0°C (43°F) [RH = 93%]
Pressure (altimeter): 30.27 inches Hg (1025.0 mb)
Winds: variable direction winds at 1 MPH (1 knots; 0.5 m/s)
Visibility: 2.80 miles (4.51 km)
Ceiling: 100 feet AGL
Clouds: broken clouds at 100 feet AGL
broken clouds at 800 feet AGL
Weather: BCFG  (patches of fog)

METAR text: EDDS 180620Z VRB01KT 3500 R25/1000N BCFG BKN001 BKN009 07/06 Q1025 BECMG 5000 BKN009
Conditions at: EDDS (STUTTGART/ECHTER, DE) observed 0620 UTC 18 October 2021
Temperature: 7.0°C (45°F)
Dewpoint: 6.0°C (43°F) [RH = 93%]
Pressure (altimeter): 30.27 inches Hg (1025.0 mb)
Winds: variable direction winds at 1 MPH (1 knots; 0.5 m/s)
Visibility: 2.17 miles (3.49 km)
Ceiling: 100 feet AGL
Clouds: broken clouds at 100 feet AGL
broken clouds at 900 feet AGL
Weather: BCFG  (patches of fog)

METAR text: EDDS 180550Z VRB01KT 2800 BCFG BKN001 06/06 Q1024 TEMPO 1400
Conditions at: EDDS (STUTTGART/ECHTER, DE) observed 0550 UTC 18 October 2021
Temperature: 6.0°C (43°F)
Dewpoint: 6.0°C (43°F) [RH = 100%]
Pressure (altimeter): 30.24 inches Hg (1024.0 mb)
Winds: variable direction winds at 1 MPH (1 knots; 0.5 m/s)
Visibility: 1.74 miles (2.80 km)
Ceiling: 100 feet AGL
Clouds: broken clouds at 100 feet AGL
Weather: BCFG  (patches of fog)

METAR text: EDDS 180520Z VRB01KT 1500 R25/1200N BCFG BKN001 06/06 Q1024 TEMPO 0400 FG
Conditions at: EDDS (STUTTGART/ECHTER, DE) observed 0520 UTC 18 October 2021
Temperature: 6.0°C (43°F)
Dewpoint: 6.0°C (43°F) [RH = 100%]
Pressure (altimeter): 30.24 inches Hg (1024.0 mb)
Winds: variable direction winds at 1 MPH (1 knots; 0.5 m/s)
Visibility: 0.93 miles (1.50 km)
Ceiling: 100 feet AGL
Clouds: broken clouds at 100 feet AGL
Weather: BCFG  (patches of fog)

METAR text: EDDS 180450Z VRB01KT 1100 R25/1500D BCFG BKN001 06/06 Q1024 TEMPO 0400 FG
Conditions at: EDDS (STUTTGART/ECHTER, DE) observed 0450 UTC 18 October 2021
Temperature: 6.0°C (43°F)
Dewpoint: 6.0°C (43°F) [RH = 100%]
Pressure (altimeter): 30.24 inches Hg (1024.0 mb)
Winds: variable direction winds at 1 MPH (1 knots; 0.5 m/s)
Visibility: 0.68 miles (1.09 km)
Ceiling: 100 feet AGL
Clouds: broken clouds at 100 feet AGL
Weather: BCFG  (patches of fog)

METAR text: EDDS 180420Z VRB01KT 0400 R25/1900N FG BKN001 06/06 Q1024 TEMPO 0200
Conditions at: EDDS (STUTTGART/ECHTER, DE) observed 0420 UTC 18 October 2021
Temperature: 6.0°C (43°F)
Dewpoint: 6.0°C (43°F) [RH = 100%]
Pressure (altimeter): 30.24 inches Hg (1024.0 mb)
Winds: variable direction winds at 1 MPH (1 knots; 0.5 m/s)
Visibility: 0.25 miles (0.40 km)
Ceiling: 100 feet AGL
Clouds: broken clouds at 100 feet AGL
Weather: FG  (fog)

METAR text: EDDS 180350Z VRB01KT 0900 R25/1300N FG BKN001 06/06 Q1024
Conditions at: EDDS (STUTTGART/ECHTER, DE) observed 0350 UTC 18 October 2021
Temperature: 6.0°C (43°F)
Dewpoint: 6.0°C (43°F) [RH = 100%]
Pressure (altimeter): 30.24 inches Hg (1024.0 mb)
Winds: variable direction winds at 1 MPH (1 knots; 0.5 m/s)
Visibility: 0.56 miles (0.90 km)
Ceiling: 100 feet AGL
Clouds: broken clouds at 100 feet AGL
Weather: FG  (fog)

METAR text: EDDS 180320Z VRB01KT 0800 R25/1900N FG BKN001 06/06 Q1023
Conditions at: EDDS (STUTTGART/ECHTER, DE) observed 0320 UTC 18 October 2021
Temperature: 6.0°C (43°F)
Dewpoint: 6.0°C (43°F) [RH = 100%]
Pressure (altimeter): 30.21 inches Hg (1023.0 mb)
Winds: variable direction winds at 1 MPH (1 knots; 0.5 m/s)
Visibility: 0.50 miles (0.80 km)
Ceiling: 100 feet AGL
Clouds: broken clouds at 100 feet AGL
Weather: FG  (fog)

METAR text: EDDS 180250Z VRB01KT 0550 R25/P2000N FG BKN001 06/06 Q1023
Conditions at: EDDS (STUTTGART/ECHTER, DE) observed 0250 UTC 18 October 2021
Temperature: 6.0°C (43°F)
Dewpoint: 6.0°C (43°F) [RH = 100%]
Pressure (altimeter): 30.21 inches Hg (1023.0 mb)
Winds: variable direction winds at 1 MPH (1 knots; 0.5 m/s)
Visibility: 0.34 miles (0.55 km)
Ceiling: 100 feet AGL
Clouds: broken clouds at 100 feet AGL
Weather: FG  (fog)

METAR text: EDDS 180220Z VRB02KT 0500 R25/P2000N FG BKN002 06/06 Q1023
Conditions at: EDDS (STUTTGART/ECHTER, DE) observed 0220 UTC 18 October 2021
Temperature: 6.0°C (43°F)
Dewpoint: 6.0°C (43°F) [RH = 100%]
Pressure (altimeter): 30.21 inches Hg (1023.0 mb)
Winds: variable direction winds at 2 MPH (2 knots; 1.0 m/s)
Visibility: 0.31 miles (0.50 km)
Ceiling: 200 feet AGL
Clouds: broken clouds at 200 feet AGL
Weather: FG  (fog)

METAR text: EDDS 180150Z 26003KT 200V320 2500 BCFG BR BKN002 06/06 Q1023
Conditions at: EDDS (STUTTGART/ECHTER, DE) observed 0150 UTC 18 October 2021
Temperature: 6.0°C (43°F)
Dewpoint: 6.0°C (43°F) [RH = 100%]
Pressure (altimeter): 30.21 inches Hg (1023.0 mb)
Winds: from the W (260 degrees) at 3 MPH (3 knots; 1.5 m/s)
Visibility: 1.55 miles (2.49 km)
Ceiling: 200 feet AGL
Clouds: broken clouds at 200 feet AGL
Weather: BCFG BR  (patches of fog, mist)

METAR text: EDDS 180120Z 30004KT 2500 1000E R25/P2000N BCFG BKN001 06/06 Q1023
Conditions at: EDDS (STUTTGART/ECHTER, DE) observed 0120 UTC 18 October 2021
Temperature: 6.0°C (43°F)
Dewpoint: 6.0°C (43°F) [RH = 100%]
Pressure (altimeter): 30.21 inches Hg (1023.0 mb)
Winds: from the WNW (300 degrees) at 5 MPH (4 knots; 2.1 m/s)
Visibility: 1.55 miles (2.49 km)
Ceiling: 100 feet AGL
Clouds: broken clouds at 100 feet AGL
Weather: BCFG  (patches of fog)

METAR text: EDDS 180050Z 29005KT 0900 R07/P2000N FG BKN001 06/06 Q1023
Conditions at: EDDS (STUTTGART/ECHTER, DE) observed 0050 UTC 18 October 2021
Temperature: 6.0°C (43°F)
Dewpoint: 6.0°C (43°F) [RH = 100%]
Pressure (altimeter): 30.21 inches Hg (1023.0 mb)
Winds: from the WNW (290 degrees) at 6 MPH (5 knots; 2.6 m/s)
Visibility: 0.56 miles (0.90 km)
Ceiling: 100 feet AGL
Clouds: broken clouds at 100 feet AGL
Weather: FG  (fog)

METAR text: EDDS 180020Z 27005KT 0700 R25/1900U FG BKN001 06/06 Q1023
Conditions at: EDDS (STUTTGART/ECHTER, DE) observed 0020 UTC 18 October 2021
Temperature: 6.0°C (43°F)
Dewpoint: 6.0°C (43°F) [RH = 100%]
Pressure (altimeter): 30.21 inches Hg (1023.0 mb)
Winds: from the W (270 degrees) at 6 MPH (5 knots; 2.6 m/s)
Visibility: 0.43 miles (0.69 km)
Ceiling: 100 feet AGL
Clouds: broken clouds at 100 feet AGL
Weather: FG  (fog)

METAR text: EDDS 172350Z 26004KT 240V300 0700 R25/1900N FG BKN001 06/06 Q1023
Conditions at: EDDS (STUTTGART/ECHTER, DE) observed 2350 UTC 17 October 2021
Temperature: 6.0°C (43°F)
Dewpoint: 6.0°C (43°F) [RH = 100%]
Pressure (altimeter): 30.21 inches Hg (1023.0 mb)
Winds: from the W (260 degrees) at 5 MPH (4 knots; 2.1 m/s)
Visibility: 0.43 miles (0.69 km)
Ceiling: 100 feet AGL
Clouds: broken clouds at 100 feet AGL
Weather: FG  (fog)

METAR text: EDDS 172320Z 26004KT 2000 0900W R25/P2000N BCFG BKN001 BKN009 06/06 Q1023
Conditions at: EDDS (STUTTGART/ECHTER, DE) observed 2320 UTC 17 October 2021
Temperature: 6.0°C (43°F)
Dewpoint: 6.0°C (43°F) [RH = 100%]
Pressure (altimeter): 30.21 inches Hg (1023.0 mb)
Winds: from the W (260 degrees) at 5 MPH (4 knots; 2.1 m/s)
Visibility: 1.24 miles (2.00 km)
Ceiling: 100 feet AGL
Clouds: broken clouds at 100 feet AGL
broken clouds at 900 feet AGL
Weather: BCFG  (patches of fog)

METAR text: EDDS 172250Z 25006KT 5000 2000E BCFG SCT002 BKN009 06/06 Q1023
Conditions at: EDDS (STUTTGART/ECHTER, DE) observed 2250 UTC 17 October 2021
Temperature: 6.0°C (43°F)
Dewpoint: 6.0°C (43°F) [RH = 100%]
Pressure (altimeter): 30.21 inches Hg (1023.0 mb)
Winds: from the WSW (250 degrees) at 7 MPH (6 knots; 3.1 m/s)
Visibility: 3 miles ( 5 km)
Ceiling: 900 feet AGL
Clouds: scattered clouds at 200 feet AGL
broken clouds at 900 feet AGL
Weather: BCFG  (patches of fog)

METAR text: EDDS 172220Z VRB02KT 9000 FEW003 BKN009 BKN025 06/06 Q1023
Conditions at: EDDS (STUTTGART/ECHTER, DE) observed 2220 UTC 17 October 2021
Temperature: 6.0°C (43°F)
Dewpoint: 6.0°C (43°F) [RH = 100%]
Pressure (altimeter): 30.21 inches Hg (1023.0 mb)
Winds: variable direction winds at 2 MPH (2 knots; 1.0 m/s)
Visibility: 6 miles ( 9 km)
Ceiling: 900 feet AGL
Clouds: few clouds at 300 feet AGL
broken clouds at 900 feet AGL
broken clouds at 2500 feet AGL
Weather: no significant weather observed at this time

METAR text: EDDS 172150Z 29003KT 9000 FEW004 BKN008 BKN025 07/06 Q1023
Conditions at: EDDS (STUTTGART/ECHTER, DE) observed 2150 UTC 17 October 2021
Temperature: 7.0°C (45°F)
Dewpoint: 6.0°C (43°F) [RH = 93%]
Pressure (altimeter): 30.21 inches Hg (1023.0 mb)
Winds: from the WNW (290 degrees) at 3 MPH (3 knots; 1.5 m/s)
Visibility: 6 miles ( 9 km)
Ceiling: 800 feet AGL
Clouds: few clouds at 400 feet AGL
broken clouds at 800 feet AGL
broken clouds at 2500 feet AGL
Weather: no significant weather observed at this time

METAR text: EDDS 172120Z VRB02KT 9999 FEW004 BKN009 BKN025 06/05 Q1023
Conditions at: EDDS (STUTTGART/ECHTER, DE) observed 2120 UTC 17 October 2021
Temperature: 6.0°C (43°F)
Dewpoint: 5.0°C (41°F) [RH = 93%]
Pressure (altimeter): 30.21 inches Hg (1023.0 mb)
Winds: variable direction winds at 2 MPH (2 knots; 1.0 m/s)
Visibility: 6 or more miles (10+ km)
Ceiling: 900 feet AGL
Clouds: few clouds at 400 feet AGL
broken clouds at 900 feet AGL
broken clouds at 2500 feet AGL
Weather: no significant weather observed at this time

METAR text: EDDS 172050Z 22001KT 9999 FEW004 BKN008 07/06 Q1023
Conditions at: EDDS (STUTTGART/ECHTER, DE) observed 2050 UTC 17 October 2021
Temperature: 7.0°C (45°F)
Dewpoint: 6.0°C (43°F) [RH = 93%]
Pressure (altimeter): 30.21 inches Hg (1023.0 mb)
Winds: from the SW (220 degrees) at 1 MPH (1 knots; 0.5 m/s)
Visibility: 6 or more miles (10+ km)
Ceiling: 800 feet AGL
Clouds: few clouds at 400 feet AGL
broken clouds at 800 feet AGL
Weather: no significant weather observed at this time

METAR text: EDDS 172020Z VRB02KT 9999 SCT004 BKN008 07/06 Q1022
Conditions at: EDDS (STUTTGART/ECHTER, DE) observed 2020 UTC 17 October 2021
Temperature: 7.0°C (45°F)
Dewpoint: 6.0°C (43°F) [RH = 93%]
Pressure (altimeter): 30.18 inches Hg (1022.0 mb)
Winds: variable direction winds at 2 MPH (2 knots; 1.0 m/s)
Visibility: 6 or more miles (10+ km)
Ceiling: 800 feet AGL
Clouds: scattered clouds at 400 feet AGL
broken clouds at 800 feet AGL
Weather: no significant weather observed at this time

METAR text: EDDS 171950Z 26002KT 7000 BKN004 OVC008 08/06 Q1022 BECMG 1500 BCFG SCT006
Conditions at: EDDS (STUTTGART/ECHTER, DE) observed 1950 UTC 17 October 2021
Temperature: 8.0°C (46°F)
Dewpoint: 6.0°C (43°F) [RH = 87%]
Pressure (altimeter): 30.18 inches Hg (1022.0 mb)
Winds: from the W (260 degrees) at 2 MPH (2 knots; 1.0 m/s)
Visibility: 4 miles ( 7 km)
Ceiling: 400 feet AGL
Clouds: broken clouds at 400 feet AGL
overcast cloud deck at 800 feet AGL
Weather: no significant weather observed at this time

METAR text: EDDS 171920Z VRB01KT 7000 BKN004 08/06 Q1022 BECMG 1500 BCFG SCT006
Conditions at: EDDS (STUTTGART/ECHTER, DE) observed 1920 UTC 17 October 2021
Temperature: 8.0°C (46°F)
Dewpoint: 6.0°C (43°F) [RH = 87%]
Pressure (altimeter): 30.18 inches Hg (1022.0 mb)
Winds: variable direction winds at 1 MPH (1 knots; 0.5 m/s)
Visibility: 4 miles ( 7 km)
Ceiling: 400 feet AGL
Clouds: broken clouds at 400 feet AGL
Weather: no significant weather observed at this time

METAR text: EDDS 171850Z 34003KT 290V030 6000 OVC004 08/07 Q1022 BECMG 4000 BR
Conditions at: EDDS (STUTTGART/ECHTER, DE) observed 1850 UTC 17 October 2021
Temperature: 8.0°C (46°F)
Dewpoint: 7.0°C (45°F) [RH = 93%]
Pressure (altimeter): 30.18 inches Hg (1022.0 mb)
Winds: from the NNW (340 degrees) at 3 MPH (3 knots; 1.5 m/s)
Visibility: 4 miles ( 6 km)
Ceiling: 400 feet AGL
Clouds: overcast cloud deck at 400 feet AGL
Weather: no significant weather observed at this time

METAR text: EDDS 171820Z 30003KT 260V340 7000 OVC004 08/07 Q1022 BECMG 4000 BR
Conditions at: EDDS (STUTTGART/ECHTER, DE) observed 1820 UTC 17 October 2021
Temperature: 8.0°C (46°F)
Dewpoint: 7.0°C (45°F) [RH = 93%]
Pressure (altimeter): 30.18 inches Hg (1022.0 mb)
Winds: from the WNW (300 degrees) at 3 MPH (3 knots; 1.5 m/s)
Visibility: 4 miles ( 7 km)
Ceiling: 400 feet AGL
Clouds: overcast cloud deck at 400 feet AGL
Weather: no significant weather observed at this time

METAR text: EDDS 171750Z 34003KT 280V020 8000 OVC005 08/07 Q1021 BECMG OVC004
Conditions at: EDDS (STUTTGART/ECHTER, DE) observed 1750 UTC 17 October 2021
Temperature: 8.0°C (46°F)
Dewpoint: 7.0°C (45°F) [RH = 93%]
Pressure (altimeter): 30.15 inches Hg (1021.0 mb)
Winds: from the NNW (340 degrees) at 3 MPH (3 knots; 1.5 m/s)
Visibility: 5 miles ( 8 km)
Ceiling: 500 feet AGL
Clouds: overcast cloud deck at 500 feet AGL
Weather: no significant weather observed at this time

METAR text: EDDS 171720Z 35005KT 300V030 9999 OVC006 08/07 Q1021 NOSIG
Conditions at: EDDS (STUTTGART/ECHTER, DE) observed 1720 UTC 17 October 2021
Temperature: 8.0°C (46°F)
Dewpoint: 7.0°C (45°F) [RH = 93%]
Pressure (altimeter): 30.15 inches Hg (1021.0 mb)
Winds: from the N (350 degrees) at 6 MPH (5 knots; 2.6 m/s)
Visibility: 6 or more miles (10+ km)
Ceiling: 600 feet AGL
Clouds: overcast cloud deck at 600 feet AGL
Weather: no significant weather observed at this time

METAR text: EDDS 171650Z 36005KT 320V070 9999 OVC007 09/07 Q1021 NOSIG
Conditions at: EDDS (STUTTGART/ECHTER, DE) observed 1650 UTC 17 October 2021
Temperature: 9.0°C (48°F)
Dewpoint: 7.0°C (45°F) [RH = 87%]
Pressure (altimeter): 30.15 inches Hg (1021.0 mb)
Winds: from the N (360 degrees) at 6 MPH (5 knots; 2.6 m/s)
Visibility: 6 or more miles (10+ km)
Ceiling: 700 feet AGL
Clouds: overcast cloud deck at 700 feet AGL
Weather: no significant weather observed at this time

METAR text: EDDS 171620Z 34006KT 9999 OVC007 09/07 Q1020 NOSIG
Conditions at: EDDS (STUTTGART/ECHTER, DE) observed 1620 UTC 17 October 2021
Temperature: 9.0°C (48°F)
Dewpoint: 7.0°C (45°F) [RH = 87%]
Pressure (altimeter): 30.12 inches Hg (1020.0 mb)
Winds: from the NNW (340 degrees) at 7 MPH (6 knots; 3.1 m/s)
Visibility: 6 or more miles (10+ km)
Ceiling: 700 feet AGL
Clouds: overcast cloud deck at 700 feet AGL
Weather: no significant weather observed at this time

METAR text: EDDS 171550Z 34005KT 310V040 9999 BKN008 09/07 Q1020 NOSIG
Conditions at: EDDS (STUTTGART/ECHTER, DE) observed 1550 UTC 17 October 2021
Temperature: 9.0°C (48°F)
Dewpoint: 7.0°C (45°F) [RH = 87%]
Pressure (altimeter): 30.12 inches Hg (1020.0 mb)
Winds: from the NNW (340 degrees) at 6 MPH (5 knots; 2.6 m/s)
Visibility: 6 or more miles (10+ km)
Ceiling: 800 feet AGL
Clouds: broken clouds at 800 feet AGL
Weather: no significant weather observed at this time

METAR text: EDDS 171520Z 35006KT 300V030 9999 SCT007 09/07 Q1020 BECMG BKN009
Conditions at: EDDS (STUTTGART/ECHTER, DE) observed 1520 UTC 17 October 2021
Temperature: 9.0°C (48°F)
Dewpoint: 7.0°C (45°F) [RH = 87%]
Pressure (altimeter): 30.12 inches Hg (1020.0 mb)
Winds: from the N (350 degrees) at 7 MPH (6 knots; 3.1 m/s)
Visibility: 6 or more miles (10+ km)
Ceiling: at least 12,000 feet AGL
Clouds: scattered clouds at 700 feet AGL
Weather: no significant weather observed at this time

Forecast for: EDDS (STUTTGART/ECHTER, DE)
Text: TAF EDDS 182300Z 1900/1924 VRB03KT CAVOK
Forecast period: 0000 to 0900 UTC 19 October 2021
Forecast type: FROM: standard forecast or significant change
Winds: variable direction winds at 3 MPH (3 knots; 1.5 m/s)
Visibility: 6 or more miles (10+ km)
Ceiling: unknown
Clouds: missing
Weather: NSW  (no significant weather)
Text: PROB30
Forecast period: 0000 to 0400 UTC 19 October 2021
Forecast type: TEMPORARY: The following changes expected for less than half the time period
Visibility: 0.93 miles (1.50 km)
Ceiling: unknown
Clouds: missing
Weather: BCFG  (patches of fog)
Text: TEMPO 1900/1904 1500 BCFG
Forecast period: 0900 UTC 19 October 2021 to 0000 UTC 20 October 2021
Forecast type: BECOMING: Conditions expected to become as follows by 1100 UTC 19 October 2021
Winds: from the SSW (200 degrees) at 6 MPH (5 knots; 2.6 m/s)
Visibility: 6 or more miles (10+ km)
Ceiling: unknown
Clouds: missing
Weather: NSW  (no significant weather)